createdAt,value
2018-06-11T00:00:36.017Z,78.03
2018-06-11T00:03:03.750Z,78.42
2018-06-11T00:05:31.169Z,77.92
2018-06-11T00:07:58.727Z,79.15
2018-06-11T00:10:26.125Z,79.04
2018-06-11T00:12:54.145Z,79.91
2018-06-11T00:15:21.581Z,79.75
2018-06-11T00:17:49.013Z,80.13
2018-06-11T00:20:16.470Z,79.59
2018-06-11T00:22:44.080Z,79.30
2018-06-11T00:25:11.606Z,79.21
2018-06-11T00:27:39.769Z,79.77
2018-06-11T00:30:07.199Z,79.45
2018-06-11T00:32:34.790Z,79.65
2018-06-11T00:35:02.315Z,79.80
2018-06-11T00:37:29.729Z,80.81
2018-06-11T00:39:57.274Z,80.39
2018-06-11T00:42:24.822Z,80.32
2018-06-11T00:44:52.269Z,79.40
2018-06-11T00:47:19.665Z,80.17
2018-06-11T00:49:48.094Z,79.81
2018-06-11T00:52:15.454Z,81.11
2018-06-11T00:54:42.886Z,80.43
2018-06-11T00:57:10.355Z,80.02
2018-06-11T00:59:37.925Z,80.80
2018-06-11T01:02:05.442Z,80.17
2018-06-11T01:04:32.854Z,80.73
2018-06-11T01:07:00.338Z,80.81
2018-06-11T01:09:27.784Z,80.63
2018-06-11T01:11:55.251Z,81.18
2018-06-11T01:14:22.794Z,80.46
2018-06-11T01:16:50.192Z,80.95
2018-06-11T01:19:17.750Z,80.33
2018-06-11T01:21:45.183Z,81.68
2018-06-11T01:24:12.602Z,81.73
2018-06-11T01:26:40.002Z,81.34
2018-06-11T01:29:07.410Z,81.56
2018-06-11T01:31:35.509Z,80.64
2018-06-11T01:34:02.918Z,80.79
2018-06-11T01:36:30.268Z,81.28
2018-06-11T01:38:57.688Z,81.24
2018-06-11T01:41:25.114Z,80.49
2018-06-11T01:43:53.174Z,81.28
2018-06-11T01:46:20.656Z,81.80
2018-06-11T01:48:48.299Z,80.91
2018-06-11T01:51:16.325Z,82.98
2018-06-11T01:53:43.797Z,81.60
2018-06-11T01:56:11.232Z,82.12
2018-06-11T01:58:38.621Z,82.23
2018-06-11T02:01:06.137Z,82.12
2018-06-11T02:03:33.637Z,82.64
2018-06-11T02:06:01.028Z,82.56
2018-06-11T02:08:28.408Z,82.67
2018-06-11T02:10:56.580Z,83.22
2018-06-11T02:13:24.751Z,83.46
2018-06-11T02:15:52.154Z,83.27
2018-06-11T02:18:19.621Z,83.51
2018-06-11T02:20:46.996Z,82.46
2018-06-11T02:23:14.512Z,83.29
2018-06-11T02:25:42.160Z,82.29
2018-06-11T02:28:09.557Z,83.02
2018-06-11T02:30:36.994Z,81.95
2018-06-11T02:33:04.395Z,83.34
2018-06-11T02:35:31.961Z,83.30
2018-06-11T02:37:59.591Z,83.46
2018-06-11T02:40:27.142Z,83.44
2018-06-11T02:42:54.672Z,83.03
2018-06-11T02:45:22.320Z,81.88
2018-06-11T02:47:49.826Z,81.72
2018-06-11T02:50:17.889Z,81.89
2018-06-11T02:52:45.354Z,82.37
2018-06-11T02:55:12.729Z,83.23
2018-06-11T02:57:40.221Z,82.63
2018-06-11T03:00:07.663Z,82.76
2018-06-11T03:02:35.091Z,82.61
2018-06-11T03:05:03.141Z,82.28
2018-06-11T03:07:30.509Z,81.97
2018-06-11T03:09:57.977Z,81.59
2018-06-11T03:12:25.471Z,83.09
2018-06-11T03:14:52.921Z,83.51
2018-06-11T03:17:20.368Z,83.12
2018-06-11T03:19:48.021Z,82.71
2018-06-11T03:22:15.656Z,83.02
2018-06-11T03:24:43.097Z,83.20
2018-06-11T03:27:11.262Z,83.10
2018-06-11T03:29:38.702Z,83.92
2018-06-11T03:32:06.218Z,83.08
2018-06-11T03:34:33.628Z,83.46
2018-06-11T03:37:01.093Z,83.98
2018-06-11T03:39:28.579Z,83.34
2018-06-11T03:41:55.949Z,83.76
2018-06-11T03:44:23.590Z,83.81
2018-06-11T03:46:51.071Z,82.72
2018-06-11T03:49:18.460Z,82.88
2018-06-11T03:51:45.877Z,83.74
2018-06-11T03:54:13.695Z,83.16
2018-06-11T03:56:41.173Z,82.21
2018-06-11T03:59:08.593Z,83.54
2018-06-11T04:01:36.052Z,82.80
2018-06-11T04:04:03.510Z,82.62
2018-06-11T04:06:30.984Z,82.72
2018-06-11T04:08:58.328Z,82.60
2018-06-11T04:11:25.765Z,82.99
2018-06-11T04:13:53.207Z,82.38
2018-06-11T04:16:20.673Z,82.44
2018-06-11T04:18:48.357Z,81.99
2018-06-11T04:21:16.485Z,81.20
2018-06-11T04:23:43.921Z,80.97
2018-06-11T04:26:11.351Z,81.21
2018-06-11T04:28:38.754Z,82.23
2018-06-11T04:31:06.264Z,81.31
2018-06-11T04:33:33.673Z,81.61
2018-06-11T04:36:01.105Z,81.18
2018-06-11T04:38:28.479Z,80.47
2018-06-11T04:40:55.888Z,80.79
2018-06-11T04:43:23.277Z,81.60
2018-06-11T04:45:50.738Z,81.25
2018-06-11T04:48:18.147Z,80.58
2018-06-11T04:50:45.705Z,80.95
2018-06-11T04:53:13.199Z,80.83
2018-06-11T04:55:40.628Z,80.36
2018-06-11T04:58:08.072Z,79.77
2018-06-11T05:00:36.086Z,79.23
2018-06-11T05:03:04.106Z,79.50
2018-06-11T05:05:32.361Z,79.52
2018-06-11T05:07:59.833Z,79.41
2018-06-11T05:10:27.228Z,78.44
2018-06-11T05:12:54.741Z,78.41
2018-06-11T05:15:22.381Z,78.90
2018-06-11T05:17:50.403Z,78.87
2018-06-11T05:20:17.848Z,77.86
2018-06-11T05:22:45.237Z,77.30
2018-06-11T05:25:12.658Z,77.85
2018-06-11T05:27:40.048Z,77.65
2018-06-11T05:30:07.462Z,77.76
2018-06-11T05:32:34.897Z,77.84
2018-06-11T05:35:02.317Z,77.22
2018-06-11T05:37:29.800Z,77.09
2018-06-11T05:39:58.113Z,77.04
2018-06-11T05:42:25.506Z,75.79
2018-06-11T05:44:52.883Z,75.20
2018-06-11T05:47:20.753Z,75.69
2018-06-11T05:49:48.795Z,74.95
2018-06-11T05:52:16.315Z,74.98
2018-06-11T05:54:43.732Z,74.62
2018-06-11T05:57:11.124Z,75.09
2018-06-11T05:59:38.575Z,74.70
2018-06-11T06:02:05.999Z,74.33
2018-06-11T06:04:33.430Z,74.74
2018-06-11T06:07:00.785Z,74.22
2018-06-11T06:09:28.203Z,74.16
2018-06-11T06:11:55.622Z,73.99
2018-06-11T06:14:23.002Z,73.52
2018-06-11T06:16:51.231Z,73.21
2018-06-11T06:19:18.654Z,73.20
2018-06-11T06:21:46.089Z,72.77
2018-06-11T06:24:13.713Z,72.82
2018-06-11T06:26:42.006Z,72.64
2018-06-11T06:29:09.470Z,72.99
2018-06-11T06:31:36.917Z,72.97
2018-06-11T06:34:04.427Z,72.36
2018-06-11T06:36:31.973Z,71.54
2018-06-11T06:38:59.438Z,71.14
2018-06-11T06:41:26.859Z,70.49
2018-06-11T06:43:54.452Z,70.27
2018-06-11T06:46:22.044Z,70.97
2018-06-11T06:48:50.410Z,70.34
2018-06-11T06:51:17.865Z,69.11
2018-06-11T06:53:45.893Z,69.42
2018-06-11T06:56:13.370Z,69.15
2018-06-11T06:58:40.750Z,67.79
2018-06-11T07:01:08.218Z,67.42
2018-06-11T07:03:35.627Z,67.39
2018-06-11T07:06:03.016Z,66.37
2018-06-11T07:08:30.458Z,66.16
2018-06-11T07:10:57.945Z,66.52
2018-06-11T07:13:26.054Z,66.63
2018-06-11T07:15:53.468Z,66.64
2018-06-11T07:18:21.082Z,66.49
2018-06-11T07:20:49.133Z,65.80
2018-06-11T07:23:16.569Z,64.82
2018-06-11T07:25:44.087Z,63.77
2018-06-11T07:28:11.470Z,63.23
2018-06-11T07:30:38.957Z,63.88
2018-06-11T07:33:06.583Z,62.38
2018-06-11T07:35:34.120Z,61.28
2018-06-11T07:38:01.613Z,60.11
2018-06-11T07:40:29.105Z,59.75
2018-06-11T07:42:56.635Z,58.22
2018-06-11T07:45:24.142Z,55.90
2018-06-11T07:47:51.689Z,56.25
2018-06-11T07:50:19.195Z,55.13
2018-06-11T07:52:46.734Z,54.24
2018-06-11T07:55:14.129Z,54.42
2018-06-11T07:57:41.733Z,52.38
2018-06-11T08:00:09.259Z,51.04
2018-06-11T08:02:36.741Z,52.28
2018-06-11T08:05:04.166Z,51.53
2018-06-11T08:07:31.768Z,52.27
2018-06-11T08:09:59.361Z,52.35
2018-06-11T08:12:26.926Z,51.06
2018-06-11T08:14:54.401Z,50.48
2018-06-11T08:17:21.818Z,49.17
2018-06-11T08:19:49.340Z,48.46
2018-06-11T08:22:16.727Z,46.20
2018-06-11T08:24:44.255Z,45.93
2018-06-11T08:27:11.809Z,44.97
2018-06-11T08:29:39.442Z,45.14
2018-06-11T08:32:07.006Z,45.64
2018-06-11T08:34:34.495Z,44.89
2018-06-11T08:37:01.944Z,43.89
2018-06-11T08:39:29.459Z,44.18
2018-06-11T08:41:56.962Z,43.41
2018-06-11T08:44:24.398Z,43.36
2018-06-11T08:46:51.852Z,42.78
2018-06-11T08:49:19.238Z,42.73
2018-06-11T08:51:46.701Z,42.37
2018-06-11T08:54:14.067Z,43.06
2018-06-11T08:56:41.431Z,43.39
2018-06-11T08:59:08.898Z,43.70
2018-06-11T09:01:36.901Z,43.95
2018-06-11T09:04:04.450Z,44.25
2018-06-11T09:06:32.054Z,44.93
2018-06-11T09:09:00.428Z,44.77
2018-06-11T09:11:27.861Z,46.26
2018-06-11T09:13:55.430Z,46.73
2018-06-11T09:16:23.635Z,48.31
2018-06-11T09:18:51.144Z,49.06
2018-06-11T09:21:18.600Z,47.70
2018-06-11T09:23:46.670Z,48.21
2018-06-11T09:26:14.159Z,49.10
2018-06-11T09:28:41.707Z,49.29
2018-06-11T09:31:09.183Z,49.56
2018-06-11T09:33:36.665Z,49.54
2018-06-11T09:36:04.227Z,48.37
2018-06-11T09:38:31.774Z,48.83
2018-06-11T09:40:59.390Z,49.11
2018-06-11T09:43:27.428Z,47.01
2018-06-11T09:45:54.875Z,47.44
2018-06-11T09:48:22.386Z,47.62
2018-06-11T09:50:49.912Z,46.53
2018-06-11T09:53:17.359Z,44.67
2018-06-11T09:55:44.921Z,44.10
2018-06-11T09:58:13.025Z,44.80
2018-06-11T10:00:40.492Z,43.09
2018-06-11T10:03:08.055Z,43.99
2018-06-11T10:05:36.057Z,43.49
2018-06-11T10:08:04.451Z,41.88
2018-06-11T10:10:31.862Z,40.58
2018-06-11T10:12:59.377Z,39.99
2018-06-11T10:15:26.932Z,39.59
2018-06-11T10:17:54.327Z,38.56
2018-06-11T10:20:21.826Z,40.47
2018-06-11T10:22:49.272Z,37.37
2018-06-11T10:25:16.642Z,38.21
2018-06-11T10:27:44.053Z,35.11
2018-06-11T10:30:11.476Z,34.43
2018-06-11T10:32:38.893Z,34.37
2018-06-11T10:35:06.321Z,33.84
2018-06-11T10:37:33.810Z,34.67
2018-06-11T10:40:01.283Z,35.29
2018-06-11T10:42:28.768Z,34.68
2018-06-11T10:44:56.196Z,35.66
2018-06-11T10:47:24.506Z,35.64
2018-06-11T10:49:52.058Z,35.75
2018-06-11T10:52:19.634Z,37.26
2018-06-11T10:54:47.146Z,38.15
2018-06-11T10:57:14.646Z,38.36
2018-06-11T10:59:42.124Z,37.82
2018-06-11T11:02:09.628Z,39.15
2018-06-11T11:04:37.123Z,36.49
2018-06-11T11:07:05.135Z,36.15
2018-06-11T11:09:32.527Z,34.95
2018-06-11T11:11:59.965Z,34.17
2018-06-11T11:14:27.551Z,34.12
2018-06-11T11:16:54.934Z,33.25
2018-06-11T11:19:22.315Z,32.70
2018-06-11T11:21:49.755Z,32.56
2018-06-11T11:24:17.716Z,33.17
2018-06-11T11:26:45.201Z,33.29
2018-06-11T11:29:12.773Z,34.01
2018-06-11T11:31:40.242Z,33.71
2018-06-11T11:34:07.733Z,33.69
2018-06-11T11:36:35.170Z,32.33
2018-06-11T11:39:02.684Z,32.81
2018-06-11T11:41:30.132Z,32.90
2018-06-11T11:43:57.807Z,32.40
2018-06-11T11:46:25.269Z,31.15
2018-06-11T11:48:52.692Z,32.69
2018-06-11T11:51:20.241Z,32.09
2018-06-11T11:53:47.869Z,32.44
2018-06-11T11:56:15.910Z,32.69
2018-06-11T11:58:43.737Z,33.21
2018-06-11T12:01:11.879Z,31.72
2018-06-11T12:03:39.913Z,32.60
2018-06-11T12:06:07.502Z,32.83
2018-06-11T12:08:35.081Z,32.95
2018-06-11T12:11:03.140Z,32.44
2018-06-11T12:13:30.658Z,31.77
2018-06-11T12:15:58.118Z,31.66
2018-06-11T12:18:25.531Z,32.71
2018-06-11T12:20:53.006Z,32.81
2018-06-11T12:23:20.493Z,32.71
2018-06-11T12:25:47.924Z,32.84
2018-06-11T12:28:15.346Z,32.19
2018-06-11T12:30:42.792Z,33.33
2018-06-11T12:33:10.939Z,34.25
2018-06-11T12:35:38.363Z,33.27
2018-06-11T12:38:05.896Z,33.70
2018-06-11T12:40:33.512Z,33.33
2018-06-11T12:43:01.906Z,33.37
2018-06-11T12:45:29.458Z,33.99
2018-06-11T12:47:57.035Z,34.47
2018-06-11T12:50:24.462Z,34.94
2018-06-11T12:52:52.133Z,33.65
2018-06-11T12:55:19.530Z,34.20
2018-06-11T12:57:47.004Z,34.45
2018-06-11T13:00:14.570Z,35.53
2018-06-11T13:02:42.156Z,35.68
2018-06-11T13:05:09.729Z,35.54
2018-06-11T13:07:37.973Z,35.74
2018-06-11T13:10:05.420Z,35.50
2018-06-11T13:12:32.856Z,36.55
2018-06-11T13:15:00.539Z,36.34
2018-06-11T13:17:28.175Z,36.44
2018-06-11T13:19:55.789Z,37.02
2018-06-11T13:22:23.523Z,36.69
2018-06-11T13:24:51.345Z,35.74
2018-06-11T13:27:19.095Z,36.21
2018-06-11T13:29:46.809Z,35.65
2018-06-11T13:32:15.165Z,34.99
2018-06-11T13:34:42.819Z,35.18
2018-06-11T13:37:10.742Z,33.34
2018-06-11T13:39:38.381Z,33.27
2018-06-11T13:42:05.795Z,33.43
2018-06-11T13:44:33.402Z,32.54
2018-06-11T13:47:00.841Z,33.53
2018-06-11T13:49:28.769Z,33.61
2018-06-11T13:51:56.392Z,33.45
2018-06-11T13:54:24.025Z,35.24
2018-06-11T13:56:51.528Z,34.62
2018-06-11T13:59:19.019Z,34.28
2018-06-11T14:01:46.612Z,34.46
2018-06-11T14:04:14.010Z,34.28
2018-06-11T14:06:41.639Z,34.00
2018-06-11T14:09:09.396Z,34.43
2018-06-11T14:11:37.199Z,34.03
2018-06-11T14:14:04.626Z,32.89
2018-06-11T14:16:32.256Z,32.46
2018-06-11T14:19:00.852Z,32.45
2018-06-11T14:21:28.302Z,33.31
2018-06-11T14:23:55.828Z,34.82
2018-06-11T14:26:23.314Z,35.63
2018-06-11T14:28:50.852Z,35.56
2018-06-11T14:31:18.518Z,35.76
2018-06-11T14:33:46.142Z,35.79
2018-06-11T14:36:13.744Z,35.52
2018-06-11T14:38:41.202Z,36.06
2018-06-11T14:41:09.070Z,35.72
2018-06-11T14:43:36.717Z,35.49
2018-06-11T14:46:04.505Z,35.39
2018-06-11T14:48:32.452Z,36.89
2018-06-11T14:50:59.922Z,37.03
2018-06-11T14:53:27.839Z,37.06
2018-06-11T14:55:55.500Z,37.24
2018-06-11T14:58:23.241Z,36.64
2018-06-11T15:00:50.945Z,37.32
2018-06-11T15:03:18.896Z,37.18
2018-06-11T15:05:46.873Z,37.67
2018-06-11T15:08:14.777Z,38.81
2018-06-11T15:10:42.418Z,39.97
2018-06-11T15:13:10.101Z,39.74
2018-06-11T15:15:37.594Z,38.78
2018-06-11T15:18:05.285Z,39.48
2018-06-11T15:20:32.896Z,40.48
2018-06-11T15:23:00.406Z,40.32
2018-06-11T15:25:27.908Z,40.67
2018-06-11T15:27:55.470Z,40.83
2018-06-11T15:30:23.094Z,40.39
2018-06-11T15:32:50.780Z,41.64
2018-06-11T15:35:18.348Z,41.20
2018-06-11T15:37:45.881Z,41.50
2018-06-11T15:40:13.474Z,41.72
2018-06-11T15:42:40.971Z,42.10
2018-06-11T15:45:08.519Z,42.21
2018-06-11T15:47:36.129Z,41.81
2018-06-11T15:50:04.573Z,42.53
2018-06-11T15:52:32.208Z,41.67
2018-06-11T15:54:59.831Z,41.46
2018-06-11T15:57:27.352Z,42.02
2018-06-11T15:59:55.732Z,40.51
2018-06-11T16:02:23.329Z,40.00
2018-06-11T16:04:50.871Z,40.26
2018-06-11T16:07:18.419Z,38.92
2018-06-11T16:09:46.001Z,39.34
2018-06-11T16:12:13.593Z,40.01
2018-06-11T16:14:41.135Z,40.71
2018-06-11T16:17:08.725Z,42.31
2018-06-11T16:19:36.373Z,42.68
2018-06-11T16:22:04.249Z,42.93
2018-06-11T16:24:31.864Z,44.29
2018-06-11T16:26:59.469Z,44.40
2018-06-11T16:29:26.980Z,45.53
2018-06-11T16:31:54.549Z,44.90
2018-06-11T16:34:22.204Z,45.31
2018-06-11T16:36:49.800Z,45.58
2018-06-11T16:39:17.509Z,45.94
2018-06-11T16:41:45.295Z,46.18
2018-06-11T16:44:12.845Z,46.79
2018-06-11T16:46:40.454Z,46.39
2018-06-11T16:49:08.213Z,46.13
2018-06-11T16:51:35.736Z,46.71
2018-06-11T16:54:03.219Z,47.39
2018-06-11T16:56:31.139Z,45.82
2018-06-11T16:58:58.824Z,47.01
2018-06-11T17:01:26.508Z,48.30
2018-06-11T17:03:54.193Z,48.64
2018-06-11T17:06:21.984Z,48.08
2018-06-11T17:08:49.505Z,47.97
2018-06-11T17:11:17.216Z,48.45
2018-06-11T17:13:44.692Z,49.51
2018-06-11T17:16:12.867Z,51.15
2018-06-11T17:18:40.990Z,50.05
2018-06-11T17:21:09.142Z,49.93
2018-06-11T17:23:36.822Z,48.72
2018-06-11T17:26:04.340Z,48.75
2018-06-11T17:28:31.961Z,48.96
2018-06-11T17:30:59.476Z,48.89
2018-06-11T17:33:27.176Z,50.00
2018-06-11T17:35:54.864Z,51.08
2018-06-11T17:38:22.902Z,53.09
2018-06-11T17:40:50.545Z,54.25
2018-06-11T17:43:19.007Z,54.56
2018-06-11T17:45:46.762Z,54.84
2018-06-11T17:48:14.453Z,56.12
2018-06-11T17:50:42.009Z,56.48
2018-06-11T17:53:09.729Z,57.52
2018-06-11T17:55:37.317Z,57.83
2018-06-11T17:58:05.093Z,57.72
2018-06-11T18:00:32.579Z,58.05
2018-06-11T18:03:00.318Z,59.34
2018-06-11T18:05:27.865Z,59.59
2018-06-11T18:07:55.498Z,59.48
2018-06-11T18:10:23.226Z,59.17
2018-06-11T18:12:50.835Z,60.03
2018-06-11T18:15:18.367Z,59.65
2018-06-11T18:17:46.705Z,59.62
2018-06-11T18:20:14.669Z,59.60
2018-06-11T18:22:42.238Z,59.46
2018-06-11T18:25:09.797Z,59.26
2018-06-11T18:27:37.367Z,61.07
2018-06-11T18:30:05.058Z,61.11
2018-06-11T18:32:32.634Z,61.49
2018-06-11T18:35:00.274Z,61.26
2018-06-11T18:37:27.955Z,61.58
2018-06-11T18:39:55.417Z,61.66
2018-06-11T18:42:22.876Z,61.60
2018-06-11T18:44:50.606Z,61.74
2018-06-11T18:47:18.795Z,61.32
2018-06-11T18:49:46.410Z,62.49
2018-06-11T18:52:14.116Z,62.75
2018-06-11T18:54:41.820Z,62.70
2018-06-11T18:57:09.701Z,63.89
2018-06-11T18:59:37.376Z,63.91
2018-06-11T19:02:04.809Z,63.22
2018-06-11T19:04:32.369Z,64.48
2018-06-11T19:07:00.002Z,63.14
2018-06-11T19:09:27.574Z,64.49
2018-06-11T19:11:55.003Z,63.87
2018-06-11T19:14:22.586Z,64.51
2018-06-11T19:16:50.683Z,65.29
2018-06-11T19:19:18.299Z,63.65
2018-06-11T19:21:46.668Z,64.47
2018-06-11T19:24:14.162Z,65.42
2018-06-11T19:26:42.648Z,65.92
2018-06-11T19:29:10.353Z,64.71
2018-06-11T19:31:38.218Z,65.41
2018-06-11T19:34:05.788Z,65.88
2018-06-11T19:36:33.466Z,67.27
2018-06-11T19:39:01.033Z,66.30
2018-06-11T19:41:28.565Z,66.47
2018-06-11T19:43:56.176Z,66.29
2018-06-11T19:46:24.101Z,67.41
2018-06-11T19:48:51.593Z,67.37
2018-06-11T19:51:19.292Z,67.55
2018-06-11T19:53:46.868Z,67.98
2018-06-11T19:56:14.438Z,67.87
2018-06-11T19:58:42.030Z,68.50
2018-06-11T20:01:09.624Z,68.91
2018-06-11T20:03:37.359Z,68.04
2018-06-11T20:06:04.772Z,68.14
2018-06-11T20:08:32.209Z,68.22
2018-06-11T20:10:59.589Z,69.55
2018-06-11T20:13:26.964Z,69.48
2018-06-11T20:15:54.479Z,69.91
2018-06-11T20:18:22.124Z,69.75
2018-06-11T20:20:49.625Z,70.97
2018-06-11T20:23:17.169Z,70.33
2018-06-11T20:25:44.702Z,70.16
2018-06-11T20:28:12.204Z,71.19
2018-06-11T20:30:39.850Z,71.05
2018-06-11T20:33:07.412Z,71.31
2018-06-11T20:35:34.821Z,71.80
2018-06-11T20:38:02.323Z,71.74
2018-06-11T20:40:29.810Z,72.42
2018-06-11T20:42:57.244Z,72.15
2018-06-11T20:45:24.683Z,73.06
2018-06-11T20:47:52.230Z,72.92
2018-06-11T20:50:19.881Z,72.71
2018-06-11T20:52:48.169Z,72.45
2018-06-11T20:55:15.784Z,73.00
2018-06-11T20:57:43.238Z,73.34
2018-06-11T21:00:10.639Z,73.58
2018-06-11T21:02:38.065Z,73.30
2018-06-11T21:05:05.741Z,73.34
2018-06-11T21:07:33.285Z,74.27
2018-06-11T21:10:00.707Z,73.86
2018-06-11T21:12:28.602Z,74.63
2018-06-11T21:14:56.183Z,74.65
2018-06-11T21:17:23.597Z,74.10
2018-06-11T21:19:51.326Z,74.45
2018-06-11T21:22:19.576Z,73.63
2018-06-11T21:24:47.216Z,74.98
2018-06-11T21:27:14.813Z,74.83
2018-06-11T21:29:42.338Z,74.95
2018-06-11T21:32:10.026Z,74.82
2018-06-11T21:34:37.533Z,74.59
2018-06-11T21:37:05.100Z,74.59
2018-06-11T21:39:33.939Z,75.36
2018-06-11T21:42:01.355Z,75.27
2018-06-11T21:44:28.910Z,76.36
2018-06-11T21:46:56.496Z,74.98
2018-06-11T21:49:24.633Z,75.39
2018-06-11T21:51:52.913Z,75.03
2018-06-11T21:54:20.414Z,75.98
2018-06-11T21:56:48.132Z,75.74
2018-06-11T21:59:16.113Z,75.89
2018-06-11T22:01:43.677Z,76.00
2018-06-11T22:04:11.963Z,76.56
2018-06-11T22:06:39.521Z,76.19
2018-06-11T22:09:07.918Z,76.75
2018-06-11T22:11:35.530Z,76.84
2018-06-11T22:14:03.230Z,76.71
2018-06-11T22:16:30.620Z,76.57
2018-06-11T22:18:58.101Z,76.85
2018-06-11T22:21:25.785Z,77.01
2018-06-11T22:23:53.173Z,76.57
2018-06-11T22:26:20.565Z,77.43
2018-06-11T22:28:47.945Z,76.97
2018-06-11T22:31:15.481Z,77.03
2018-06-11T22:33:43.002Z,77.47
2018-06-11T22:36:10.358Z,76.54
2018-06-11T22:38:37.780Z,76.56
2018-06-11T22:41:05.165Z,77.10
2018-06-11T22:43:32.556Z,77.09
2018-06-11T22:46:00.025Z,77.18
2018-06-11T22:48:28.088Z,77.55
2018-06-11T22:50:55.497Z,77.41
2018-06-11T22:53:22.863Z,77.80
2018-06-11T22:55:50.231Z,78.53
2018-06-11T22:58:17.644Z,78.38
2018-06-11T23:00:45.063Z,77.71
2018-06-11T23:03:12.485Z,77.49
2018-06-11T23:05:39.893Z,77.52
2018-06-11T23:08:07.392Z,79.07
2018-06-11T23:10:34.785Z,78.04
2018-06-11T23:13:02.237Z,78.28
2018-06-11T23:15:29.669Z,79.21
2018-06-11T23:17:57.083Z,79.46
2018-06-11T23:20:24.467Z,78.64
2018-06-11T23:22:51.808Z,78.93
2018-06-11T23:25:19.303Z,79.06
2018-06-11T23:27:46.705Z,78.99
2018-06-11T23:30:14.097Z,78.89
2018-06-11T23:32:41.705Z,79.29
2018-06-11T23:35:09.227Z,79.42
2018-06-11T23:37:36.632Z,78.93
2018-06-11T23:40:04.068Z,79.70
2018-06-11T23:42:32.209Z,78.97
2018-06-11T23:44:59.575Z,78.85
2018-06-11T23:47:27.021Z,79.86
2018-06-11T23:49:54.428Z,79.89
2018-06-11T23:52:21.908Z,79.38
2018-06-11T23:54:50.204Z,80.10
2018-06-11T23:57:17.745Z,80.26
2018-06-11T23:59:45.160Z,80.91
